Time;durP1;ratioP1;P1;durP2;ratioP2;P2;SDS_P1;SDS_P2;PMS_P1;PMS_P2;Temp;Humidity;BMP_temperature;BMP_pressure;BME280_temperature;BME280_humidity;BME280_pressure;Samples;Min_cycle;Max_cycle;Signal;HPM_P1;HPM_P2
2022/04/10 00:00:24;;;;;;;15.20;10.00;;;;;;;0.67;83.24;96061.04;108297;1267;29428;-75
2022/04/10 00:03:09;;;;;;;13.40;9.80;;;;;;;0.65;83.14;96060.33;108204;1268;68324;-75
2022/04/10 00:05:40;;;;;;;13.40;9.70;;;;;;;0.65;83.04;96062.92;108278;1268;43014;-75
2022/04/10 00:08:11;;;;;;;13.60;9.70;;;;;;;0.63;83.06;96059.55;108266;1268;41580;-75
2022/04/10 00:10:42;;;;;;;12.60;8.10;;;;;;;0.64;83.15;96063.29;108291;1268;36110;-75
2022/04/10 00:13:13;;;;;;;14.00;9.60;;;;;;;0.70;83.42;96067.89;108319;1267;47928;-75
2022/04/10 00:15:44;;;;;;;11.50;7.80;;;;;;;0.75;83.43;96066.59;108270;1267;33757;-75
2022/04/10 00:18:15;;;;;;;13.40;8.30;;;;;;;0.73;83.16;96076.16;108273;1267;40566;-75
2022/04/10 00:20:46;;;;;;;11.50;8.20;;;;;;;0.66;83.15;96080.59;108184;1268;44659;-75
2022/04/10 00:23:16;;;;;;;13.90;7.00;;;;;;;0.70;83.57;96081.25;108290;1268;40830;-75
2022/04/10 00:25:47;;;;;;;12.90;8.20;;;;;;;0.73;83.19;96093.80;108262;1268;30361;-75
2022/04/10 00:28:18;;;;;;;10.60;8.10;;;;;;;0.72;83.51;96091.74;108256;1267;32908;-75
2022/04/10 00:30:49;;;;;;;12.30;7.90;;;;;;;0.75;83.10;96095.81;108235;1268;41972;-75
2022/04/10 00:33:20;;;;;;;12.90;8.00;;;;;;;0.78;83.26;96092.45;108218;1268;43652;-76
2022/04/10 00:35:51;;;;;;;13.30;8.50;;;;;;;0.81;83.15;96096.09;108268;1268;40844;-75
2022/04/10 00:38:21;;;;;;;12.70;9.40;;;;;;;0.81;82.94;96090.62;108196;1267;34587;-75
2022/04/10 00:40:52;;;;;;;15.00;10.00;;;;;;;0.80;83.17;96091.44;108159;1268;32072;-75
2022/04/10 00:43:28;;;;;;;13.30;9.50;;;;;;;0.77;83.19;96093.83;108156;1268;42531;-75
2022/04/10 00:45:59;;;;;;;14.20;8.90;;;;;;;0.73;82.87;96091.71;108207;1267;44394;-75
2022/04/10 00:48:30;;;;;;;11.70;8.60;;;;;;;0.74;82.96;96090.84;108200;1267;33212;-75
2022/04/10 00:53:50;;;;;;;8.80;4.70;;;;;;;0.83;83.17;96087.74;108252;1267;35583;-75
2022/04/10 00:56:21;;;;;;;10.30;5.90;;;;;;;1.07;82.90;96089.02;108205;1267;41545;-75
2022/04/10 00:58:52;;;;;;;8.80;6.40;;;;;;;1.25;82.71;96089.00;108179;1268;44154;-75
2022/04/10 01:01:23;;;;;;;8.80;5.40;;;;;;;1.38;81.96;96092.77;108252;1268;47702;-75
2022/04/10 01:03:54;;;;;;;11.90;6.10;;;;;;;1.50;81.71;96097.73;108268;1268;43487;-75
2022/04/10 01:06:26;;;;;;;7.00;3.90;;;;;;;1.60;81.25;96093.59;108272;1267;42423;-75
2022/04/10 01:08:57;;;;;;;7.00;3.30;;;;;;;1.70;80.87;96095.52;108310;1268;33879;-75
2022/04/10 01:11:28;;;;;;;6.80;3.90;;;;;;;1.82;80.37;96098.27;108232;1268;41962;-74
2022/04/10 01:13:59;;;;;;;10.30;6.10;;;;;;;1.89;79.93;96096.66;108272;1267;38939;-75
2022/04/10 01:16:31;;;;;;;8.30;5.80;;;;;;;1.91;79.71;96094.80;108213;1268;41810;-75
2022/04/10 01:19:04;;;;;;;5.70;3.90;;;;;;;1.94;79.80;96104.52;108304;1268;39932;-75
2022/04/10 01:21:40;;;;;;;9.70;6.00;;;;;;;1.95;79.59;96100.94;108273;1268;32969;-75
2022/04/10 01:24:12;;;;;;;11.00;6.50;;;;;;;2.01;79.43;96109.36;108268;1268;43727;-75
2022/04/10 01:26:44;;;;;;;12.30;7.40;;;;;;;1.96;79.25;96112.67;108234;1267;41788;-75
2022/04/10 01:29:16;;;;;;;11.30;7.10;;;;;;;1.90;79.23;96114.55;108241;1267;42552;-75
2022/04/10 01:31:48;;;;;;;12.10;7.60;;;;;;;1.78;79.18;96120.66;108231;1267;43166;-75
2022/04/10 01:34:19;;;;;;;11.70;8.10;;;;;;;1.69;79.57;96116.11;108260;1269;31674;-75
2022/04/10 01:36:51;;;;;;;11.30;8.80;;;;;;;1.62;79.55;96123.50;108222;1268;32182;-75
2022/04/10 01:39:22;;;;;;;13.80;7.80;;;;;;;1.54;79.79;96120.63;108193;1268;36564;-75
2022/04/10 01:41:53;;;;;;;11.80;8.10;;;;;;;1.53;80.03;96122.64;108256;1268;39036;-75
2022/04/10 01:44:24;;;;;;;12.40;8.20;;;;;;;1.49;80.04;96128.58;108139;1268;43792;-75
2022/04/10 01:46:55;;;;;;;12.70;8.50;;;;;;;1.52;80.54;96126.87;108276;1267;32474;-75
2022/04/10 01:49:25;;;;;;;10.30;7.60;;;;;;;1.59;80.37;96134.63;108254;1267;30116;-75
2022/04/10 01:51:56;;;;;;;12.10;7.70;;;;;;;1.58;80.34;96131.84;108344;1268;36133;-75
2022/04/10 01:54:27;;;;;;;10.40;6.90;;;;;;;1.65;80.49;96134.25;108300;1267;43391;-75
2022/04/10 01:56:58;;;;;;;8.50;3.90;;;;;;;1.73;80.49;96134.28;108117;1268;43690;-75
2022/04/10 01:59:30;;;;;;;14.50;8.20;;;;;;;1.82;80.27;96134.89;108203;1267;38885;-75
2022/04/10 02:02:01;;;;;;;9.70;6.40;;;;;;;1.90;80.26;96140.42;108321;1267;34325;-75
2022/04/10 02:04:33;;;;;;;10.10;6.70;;;;;;;1.94;80.02;96141.48;108227;1267;43227;-75
2022/04/10 02:07:04;;;;;;;13.80;7.80;;;;;;;1.94;80.17;96139.22;108262;1268;52506;-75
2022/04/10 02:09:35;;;;;;;8.70;5.30;;;;;;;1.93;80.30;96139.95;108276;1267;46095;-75
2022/04/10 02:12:08;;;;;;;11.30;7.30;;;;;;;1.91;80.30;96137.35;108167;1268;40073;-75
2022/04/10 02:14:39;;;;;;;10.30;7.70;;;;;;;1.93;80.27;96139.27;108353;1267;28586;-74
2022/04/10 02:17:09;;;;;;;10.30;7.20;;;;;;;1.94;80.10;96135.88;108179;1268;43648;-75
2022/04/10 02:19:40;;;;;;;8.70;6.50;;;;;;;1.94;80.22;96138.02;108258;1267;39663;-75
2022/04/10 02:22:11;;;;;;;11.20;7.10;;;;;;;1.99;80.41;96134.45;108264;1268;32202;-75
2022/04/10 02:24:42;;;;;;;10.70;8.40;;;;;;;1.98;80.28;96141.14;108277;1267;45911;-75
2022/04/10 02:27:12;;;;;;;10.80;6.60;;;;;;;1.95;80.11;96139.98;108176;1268;30791;-75
2022/04/10 02:29:43;;;;;;;11.70;8.00;;;;;;;1.95;80.35;96145.67;108258;1267;40587;-74
2022/04/10 02:32:14;;;;;;;12.00;8.00;;;;;;;1.96;80.40;96148.20;108236;1268;31145;-75
2022/04/10 02:34:45;;;;;;;11.90;8.00;;;;;;;1.99;80.27;96152.52;108183;1268;43240;-75
2022/04/10 02:37:16;;;;;;;12.60;7.20;;;;;;;2.00;80.47;96153.09;108315;1268;38876;-75
2022/04/10 02:39:46;;;;;;;9.30;5.70;;;;;;;2.01;80.30;96156.32;108272;1268;28553;-75
2022/04/10 02:42:17;;;;;;;9.60;6.70;;;;;;;2.02;80.26;96163.23;108214;1267;40085;-75
2022/04/10 02:44:48;;;;;;;11.30;6.70;;;;;;;2.02;80.21;96160.92;108393;1268;26090;-75
2022/04/10 02:47:19;;;;;;;6.80;5.10;;;;;;;2.02;80.15;96165.73;108228;1267;40668;-75
2022/04/10 02:49:50;;;;;;;7.80;4.50;;;;;;;2.04;80.02;96160.84;108200;1268;53425;-76
2022/04/10 02:52:22;;;;;;;12.90;7.70;;;;;;;2.07;80.24;96169.89;108204;1268;46313;-75
2022/04/10 02:54:53;;;;;;;8.20;5.10;;;;;;;2.08;79.99;96176.23;108223;1268;41801;-75
2022/04/10 02:57:23;;;;;;;9.20;5.50;;;;;;;2.05;80.03;96177.29;108272;1268;42769;-75
2022/04/10 02:59:54;;;;;;;9.80;7.40;;;;;;;2.06;80.07;96179.48;108116;1268;41204;-75
2022/04/10 03:02:25;;;;;;;11.20;7.60;;;;;;;2.06;79.97;96184.04;108314;1267;44395;-75
2022/04/10 03:04:56;;;;;;;10.00;6.70;;;;;;;2.05;80.09;96185.02;108339;1267;41148;-74
2022/04/10 03:07:27;;;;;;;6.30;4.20;;;;;;;2.05;80.01;96184.71;108224;1267;41527;-75
2022/04/10 03:09:57;;;;;;;11.90;8.10;;;;;;;2.06;80.04;96184.88;108270;1267;40650;-75
2022/04/10 03:12:28;;;;;;;10.50;7.50;;;;;;;2.08;80.04;96193.48;108253;1267;27129;-74
2022/04/10 03:14:59;;;;;;;10.00;6.40;;;;;;;2.07;79.77;96190.96;108284;1267;37159;-74
2022/04/10 03:17:30;;;;;;;8.50;5.10;;;;;;;2.06;79.90;96193.61;108227;1267;41571;-75
2022/04/10 03:20:01;;;;;;;8.70;5.40;;;;;;;2.05;79.74;96194.39;108295;1268;31333;-75
2022/04/10 03:22:32;;;;;;;11.20;7.10;;;;;;;2.04;79.85;96196.83;108174;1267;42874;-75
2022/04/10 03:25:03;;;;;;;13.10;6.30;;;;;;;2.04;79.76;96202.98;108200;1268;40944;-75
2022/04/10 03:27:33;;;;;;;8.40;6.00;;;;;;;2.04;79.79;96202.57;108246;1267;39385;-75
2022/04/10 03:30:06;;;;;;;8.10;5.70;;;;;;;2.03;79.77;96207.42;108249;1267;42556;-75
2022/04/10 03:32:37;;;;;;;7.40;4.50;;;;;;;2.02;79.62;96211.02;108197;1267;32514;-75
2022/04/10 03:35:10;;;;;;;6.60;4.20;;;;;;;2.02;79.88;96214.14;108241;1267;32674;-75
2022/04/10 03:37:41;;;;;;;6.10;4.20;;;;;;;2.00;79.96;96221.65;108251;1267;52082;-75
2022/04/10 03:40:14;;;;;;;12.00;7.60;;;;;;;1.99;80.05;96225.45;108246;1267;44177;-75
2022/04/10 03:42:44;;;;;;;9.10;6.80;;;;;;;1.99;80.08;96230.30;108321;1267;41593;-75
2022/04/10 03:45:15;;;;;;;12.70;5.70;;;;;;;1.98;79.94;96234.02;108238;1270;33877;-75
2022/04/10 03:47:47;;;;;;;9.70;7.40;;;;;;;1.98;80.09;96234.78;108210;1268;28570;-75
2022/04/10 03:50:18;;;;;;;8.60;5.80;;;;;;;1.97;80.23;96243.91;108271;1268;40506;-75
2022/04/10 03:52:49;;;;;;;10.80;8.50;;;;;;;1.95;80.14;96243.70;108209;1268;45246;-75
2022/04/10 03:55:20;;;;;;;8.50;5.20;;;;;;;1.93;80.31;96251.83;108246;1267;35004;-75
2022/04/10 03:57:50;;;;;;;11.90;8.80;;;;;;;1.91;80.20;96254.93;108281;1267;37463;-75
2022/04/10 04:00:22;;;;;;;11.60;7.90;;;;;;;1.91;80.41;96253.77;108306;1267;40781;-75
2022/04/10 04:02:53;;;;;;;9.30;7.00;;;;;;;1.91;80.35;96262.50;108186;1268;34192;-75
2022/04/10 04:05:24;;;;;;;10.40;7.40;;;;;;;1.92;80.30;96266.97;108329;1267;35860;-75
2022/04/10 04:07:55;;;;;;;13.70;8.40;;;;;;;1.91;80.03;96266.59;108199;1267;41486;-75
2022/04/10 04:10:26;;;;;;;11.10;7.50;;;;;;;1.93;79.90;96272.05;108128;1268;112587;-75
2022/04/10 04:12:57;;;;;;;11.80;8.60;;;;;;;1.93;79.91;96274.04;108201;1267;39522;-75
2022/04/10 04:15:28;;;;;;;12.10;8.10;;;;;;;1.93;79.84;96274.66;108225;1267;41072;-75
2022/04/10 04:17:58;;;;;;;10.80;7.80;;;;;;;1.93;79.72;96272.47;108202;1268;30627;-75
2022/04/10 04:20:29;;;;;;;11.40;9.10;;;;;;;1.92;79.92;96275.95;108248;1268;33155;-75
2022/04/10 04:23:00;;;;;;;13.30;7.90;;;;;;;1.92;79.76;96277.36;108211;1267;31080;-75
2022/04/10 04:25:31;;;;;;;8.70;6.40;;;;;;;1.92;79.80;96279.03;108256;1267;35509;-75
2022/04/10 04:28:03;;;;;;;12.00;7.40;;;;;;;1.89;79.92;96281.76;108307;1268;31262;-75
2022/04/10 04:30:33;;;;;;;8.60;5.10;;;;;;;1.87;79.73;96280.83;108233;1268;40099;-74
2022/04/10 04:33:05;;;;;;;11.60;7.90;;;;;;;1.83;80.18;96290.31;108198;1267;41606;-75
2022/04/10 04:35:36;;;;;;;10.20;8.50;;;;;;;1.83;79.80;96297.83;108210;1268;36392;-75
2022/04/10 04:38:07;;;;;;;13.30;8.40;;;;;;;1.82;80.03;96303.76;108223;1268;87950;-75
2022/04/10 04:40:38;;;;;;;12.80;9.60;;;;;;;1.80;80.12;96306.97;108179;1268;51899;-75
2022/04/10 04:43:10;;;;;;;11.80;9.30;;;;;;;1.83;80.22;96313.83;108209;1268;31045;-75
2022/04/10 04:45:41;;;;;;;14.70;10.00;;;;;;;1.89;80.28;96316.20;108223;1268;97969;-75
2022/04/10 04:48:12;;;;;;;10.50;8.80;;;;;;;1.96;80.34;96317.45;108282;1268;32669;-75
2022/04/10 04:50:45;;;;;;;15.40;11.80;;;;;;;2.05;80.31;96318.63;108289;1267;34277;-74
2022/04/10 04:53:15;;;;;;;14.20;10.80;;;;;;;2.18;80.31;96319.35;108147;1268;48737;-75
2022/04/10 04:55:46;;;;;;;16.30;13.00;;;;;;;2.34;80.23;96322.02;108226;1267;49312;-75
2022/04/10 04:58:17;;;;;;;13.50;9.60;;;;;;;2.62;80.08;96323.88;108329;1268;38655;-75
2022/04/10 05:00:48;;;;;;;12.20;9.20;;;;;;;2.88;79.62;96322.62;108270;1268;74622;-74
2022/04/10 05:03:19;;;;;;;14.90;11.70;;;;;;;3.13;79.08;96324.45;108329;1268;31013;-75
2022/04/10 05:05:50;;;;;;;12.70;11.00;;;;;;;3.31;78.37;96326.61;108294;1268;70840;-75
2022/04/10 05:08:21;;;;;;;14.70;12.10;;;;;;;3.63;78.44;96331.96;108282;1267;43048;-75
2022/04/10 05:10:52;;;;;;;13.30;11.10;;;;;;;4.43;77.94;96327.83;108308;1268;34011;-75
2022/04/10 05:13:22;;;;;;;14.30;12.50;;;;;;;5.19;76.12;96330.98;108248;1268;67021;-76
2022/04/10 05:15:53;;;;;;;13.70;10.90;;;;;;;5.92;75.04;96326.66;108250;1268;60853;-75
2022/04/10 05:18:24;;;;;;;12.70;10.70;;;;;;;6.60;73.64;96321.79;108289;1267;48587;-75
2022/04/10 05:20:55;;;;;;;12.20;10.10;;;;;;;7.19;71.53;96323.84;108231;1268;81701;-75
2022/04/10 05:23:26;;;;;;;11.20;10.00;;;;;;;7.31;68.70;96324.04;108214;1268;86164;-75
2022/04/10 05:25:57;;;;;;;11.40;10.20;;;;;;;7.43;68.16;96325.78;108134;1268;57217;-75
2022/04/10 05:28:28;;;;;;;11.50;10.20;;;;;;;7.73;66.28;96321.27;108241;1268;38165;-75
2022/04/10 05:30:59;;;;;;;9.80;8.80;;;;;;;6.99;65.92;96326.30;108191;1268;41186;-75
2022/04/10 05:33:30;;;;;;;10.50;8.90;;;;;;;6.43;66.11;96325.05;108173;1267;43318;-75
2022/04/10 05:36:01;;;;;;;9.10;8.00;;;;;;;6.54;67.16;96327.05;108179;1268;70335;-75
2022/04/10 05:38:32;;;;;;;9.90;8.90;;;;;;;7.41;66.36;96322.56;108174;1268;82089;-75
2022/04/10 05:41:03;;;;;;;9.20;8.20;;;;;;;8.12;65.19;96326.03;108203;1268;84423;-75
2022/04/10 05:43:34;;;;;;;10.50;8.30;;;;;;;8.73;63.23;96323.42;108213;1268;47959;-75
2022/04/10 05:46:05;;;;;;;8.90;8.00;;;;;;;9.31;62.06;96326.64;108264;1268;28012;-75
2022/04/10 05:48:36;;;;;;;10.20;7.70;;;;;;;9.91;60.16;96329.28;108154;1268;58296;-75
2022/04/10 05:51:09;;;;;;;10.60;8.00;;;;;;;9.32;59.10;96339.48;108217;1267;42193;-75
2022/04/10 05:53:39;;;;;;;9.90;8.80;;;;;;;9.44;58.25;96338.75;108157;1268;31646;-75
2022/04/10 05:56:10;;;;;;;8.50;7.40;;;;;;;8.18;58.07;96340.98;108177;1268;43913;-75
2022/04/10 05:58:41;;;;;;;12.00;9.50;;;;;;;6.95;59.68;96345.55;108275;1268;32757;-75
2022/04/10 06:01:12;;;;;;;9.40;6.60;;;;;;;5.87;61.82;96350.03;108248;1268;45599;-74
2022/04/10 06:03:43;;;;;;;8.90;6.50;;;;;;;4.92;64.10;96348.92;108138;1270;40259;-75
2022/04/10 06:06:14;;;;;;;10.90;6.90;;;;;;;4.21;66.44;96353.97;108245;1268;28879;-74
2022/04/10 06:08:45;;;;;;;12.40;9.20;;;;;;;3.79;68.00;96359.77;108248;1268;32315;-74
2022/04/10 06:11:17;;;;;;;8.90;6.80;;;;;;;3.55;69.03;96358.30;108172;1270;41525;-74
2022/04/10 06:13:47;;;;;;;12.80;10.00;;;;;;;3.42;70.01;96359.23;108213;1268;39487;-74
2022/04/10 06:16:19;;;;;;;14.20;11.10;;;;;;;3.37;70.72;96362.08;108198;1268;44340;-74
2022/04/10 06:18:50;;;;;;;13.40;10.00;;;;;;;3.32;71.23;96364.30;108302;1268;30764;-74
2022/04/10 06:21:21;;;;;;;14.00;10.00;;;;;;;3.23;71.71;96362.36;108274;1268;30922;-74
2022/04/10 06:23:52;;;;;;;11.80;9.70;;;;;;;3.18;72.40;96361.67;108180;1268;41966;-75
2022/04/10 06:26:23;;;;;;;11.20;9.50;;;;;;;3.36;72.84;96360.43;108176;1267;41519;-75
2022/04/10 06:28:54;;;;;;;13.70;10.20;;;;;;;4.32;72.57;96359.88;108232;1268;30815;-75
2022/04/10 06:31:25;;;;;;;12.20;9.50;;;;;;;4.31;70.76;96367.48;108254;1268;33922;-75
2022/04/10 06:33:56;;;;;;;12.30;10.90;;;;;;;3.85;70.65;96368.51;108247;1268;32848;-74
2022/04/10 06:36:27;;;;;;;12.00;8.30;;;;;;;3.54;71.21;96369.41;108215;1268;33210;-74
2022/04/10 06:38:59;;;;;;;12.40;10.50;;;;;;;3.29;72.14;96371.42;108246;1268;44528;-74
2022/04/10 06:41:30;;;;;;;15.10;10.80;;;;;;;3.09;72.52;96372.82;108221;1268;42151;-75
2022/04/10 06:44:01;;;;;;;12.30;10.70;;;;;;;3.01;73.17;96371.86;108234;1268;36272;-74
2022/04/10 06:46:32;;;;;;;7.30;6.40;;;;;;;3.00;73.38;96375.83;108196;1268;43874;-74
2022/04/10 06:49:03;;;;;;;13.40;11.80;;;;;;;3.02;73.66;96379.63;108209;1268;42040;-74
2022/04/10 06:51:34;;;;;;;12.30;9.50;;;;;;;3.01;73.54;96381.17;108194;1268;39700;-74
2022/04/10 06:54:07;;;;;;;6.00;4.80;;;;;;;3.07;73.94;96382.63;108147;1268;43958;-74
2022/04/10 06:56:38;;;;;;;12.00;10.30;;;;;;;2.94;74.33;96381.80;108235;1267;27238;-75
2022/04/10 06:59:09;;;;;;;13.70;10.60;;;;;;;2.91;74.39;96383.71;108233;1268;42123;-74
2022/04/10 07:01:40;;;;;;;13.10;9.60;;;;;;;3.00;74.36;96382.77;108239;1268;38025;-74
2022/04/10 07:04:13;;;;;;;15.00;9.80;;;;;;;3.09;74.54;96386.02;108201;1268;32864;-74
2022/04/10 07:06:46;;;;;;;9.50;7.00;;;;;;;3.05;74.47;96384.86;108219;1268;41557;-75
2022/04/10 07:09:18;;;;;;;9.60;7.50;;;;;;;2.97;75.03;96379.49;108255;1268;33399;-74
2022/04/10 07:11:49;;;;;;;9.10;5.60;;;;;;;2.95;75.22;96377.79;108302;1268;40160;-74
2022/04/10 07:14:21;;;;;;;14.10;10.10;;;;;;;2.92;75.22;96385.98;107938;1270;43129;-74
2022/04/10 07:16:53;;;;;;;11.80;9.10;;;;;;;2.98;75.19;96389.65;107865;1268;33629;-74
2022/04/10 07:19:24;;;;;;;9.30;6.80;;;;;;;3.02;74.93;96390.73;107941;1268;43568;-74
2022/04/10 07:24:45;;;;;;;13.30;11.10;;;;;;;2.64;75.22;96393.16;107897;1268;40116;-74
2022/04/10 07:27:16;;;;;;;14.00;10.60;;;;;;;2.59;75.55;96399.83;107900;1268;41842;-74
2022/04/10 07:29:47;;;;;;;14.70;9.10;;;;;;;2.59;75.51;96408.63;107987;1269;42339;-74
2022/04/10 07:32:18;;;;;;;11.80;6.70;;;;;;;2.55;75.61;96409.91;107802;1268;38687;-74
2022/04/10 07:34:49;;;;;;;11.80;9.10;;;;;;;2.52;76.01;96411.30;107876;1268;26874;-74
2022/04/10 07:37:20;;;;;;;13.60;11.00;;;;;;;2.58;76.17;96411.23;107912;1268;36507;-74
2022/04/10 07:39:51;;;;;;;14.30;10.80;;;;;;;2.69;76.43;96409.45;107942;1268;42945;-75
2022/04/10 07:42:23;;;;;;;14.80;9.90;;;;;;;2.74;76.08;96414.45;107848;1268;46743;-75
2022/04/10 07:44:59;;;;;;;13.30;10.10;;;;;;;2.84;75.93;96415.02;107862;1268;39581;-74
2022/04/10 07:47:31;;;;;;;10.80;6.30;;;;;;;2.84;75.93;96418.73;107893;1268;40790;-74
2022/04/10 07:50:02;;;;;;;12.90;10.10;;;;;;;2.87;75.74;96417.42;107832;1268;43803;-74
2022/04/10 07:52:33;;;;;;;10.60;8.20;;;;;;;2.88;75.22;96419.91;107824;1268;46057;-74
2022/04/10 07:55:05;;;;;;;12.50;9.00;;;;;;;2.88;74.88;96422.25;107774;1268;46586;-74
2022/04/10 07:57:37;;;;;;;13.60;9.60;;;;;;;2.84;74.97;96425.08;107740;1268;42247;-74
2022/04/10 08:00:11;;;;;;;12.50;8.50;;;;;;;2.90;75.03;96423.14;107775;1268;44120;-74
2022/04/10 08:02:44;;;;;;;12.20;8.70;;;;;;;3.24;75.08;96422.59;107805;1268;44308;-74
2022/04/10 08:05:15;;;;;;;6.90;5.00;;;;;;;3.33;74.51;96429.77;107767;1268;38886;-74
2022/04/10 08:07:47;;;;;;;8.10;6.40;;;;;;;3.30;73.80;96429.98;107814;1268;40690;-74
2022/04/10 08:10:19;;;;;;;7.30;5.10;;;;;;;3.49;73.63;96426.95;107786;1268;40023;-74
2022/04/10 08:12:50;;;;;;;8.10;5.50;;;;;;;3.54;73.15;96426.83;107777;1268;29668;-74
2022/04/10 08:15:21;;;;;;;10.00;5.50;;;;;;;3.53;73.59;96426.98;107774;1268;31627;-74
2022/04/10 08:17:52;;;;;;;7.60;5.60;;;;;;;3.83;73.22;96431.66;107771;1268;40126;-74
2022/04/10 08:20:23;;;;;;;6.30;4.80;;;;;;;3.85;71.83;96427.45;107758;1268;38444;-74
2022/04/10 08:22:59;;;;;;;8.20;6.30;;;;;;;3.57;71.25;96432.04;107729;1268;39442;-74
2022/04/10 08:25:30;;;;;;;7.00;4.70;;;;;;;3.43;71.43;96433.50;107771;1268;43998;-75
2022/04/10 08:28:02;;;;;;;5.60;3.80;;;;;;;3.35;71.25;96439.27;107750;1268;38206;-74
2022/04/10 08:30:33;;;;;;;10.80;5.50;;;;;;;3.30;71.20;96437.23;107719;1268;36855;-74
2022/04/10 08:33:04;;;;;;;8.50;4.70;;;;;;;3.22;71.25;96438.27;107689;1268;42581;-74
2022/04/10 08:35:36;;;;;;;8.50;5.60;;;;;;;3.15;70.92;96443.27;107792;1269;32134;-75
2022/04/10 08:38:07;;;;;;;8.80;6.10;;;;;;;3.13;71.17;96446.30;107692;1268;42369;-74
2022/04/10 08:40:38;;;;;;;12.50;6.80;;;;;;;3.26;71.72;96445.01;107783;1268;30889;-74
2022/04/10 08:43:11;;;;;;;9.20;6.20;;;;;;;3.32;71.48;96448.60;107733;1268;37054;-74
2022/04/10 08:45:45;;;;;;;6.80;5.10;;;;;;;3.35;71.04;96448.91;107796;1268;44496;-75
2022/04/10 08:48:17;;;;;;;9.40;5.90;;;;;;;3.27;70.75;96452.94;107784;1268;45313;-74
2022/04/10 08:50:49;;;;;;;8.90;4.70;;;;;;;3.23;71.60;96457.36;107801;1268;43780;-75
2022/04/10 08:53:21;;;;;;;5.40;3.50;;;;;;;3.23;71.10;96459.88;107809;1268;29927;-74
2022/04/10 08:55:54;;;;;;;7.70;4.50;;;;;;;3.17;71.07;96462.80;107758;1268;42966;-75
2022/04/10 08:58:26;;;;;;;8.50;5.00;;;;;;;3.13;71.20;96465.45;107656;1268;43145;-75
2022/04/10 09:00:57;;;;;;;9.20;4.50;;;;;;;3.10;71.00;96472.73;107805;1268;33674;-74
2022/04/10 09:03:28;;;;;;;8.10;5.50;;;;;;;3.07;71.10;96476.44;107727;1268;44637;-75
2022/04/10 09:06:07;;;;;;;7.30;5.00;;;;;;;3.07;71.17;96477.69;107838;1268;31009;-75
2022/04/10 09:08:38;;;;;;;6.10;4.60;;;;;;;3.05;71.06;96476.40;107602;1268;42490;-75
2022/04/10 09:11:11;;;;;;;13.70;8.40;;;;;;;3.03;71.17;96481.14;107748;1268;43041;-74
2022/04/10 09:13:47;;;;;;;10.80;5.50;;;;;;;3.09;71.39;96478.27;107774;1268;40957;-75
2022/04/10 09:16:20;;;;;;;7.40;5.90;;;;;;;3.18;71.20;96475.45;107873;1268;53901;-74
2022/04/10 09:18:57;;;;;;;5.90;3.90;;;;;;;3.31;71.21;96478.51;107749;1268;38907;-75
2022/04/10 09:21:30;;;;;;;6.90;4.40;;;;;;;3.44;70.69;96470.09;107833;1268;39619;-75
2022/04/10 09:24:04;;;;;;;8.10;4.60;;;;;;;3.52;70.15;96471.76;107627;1268;234259;-75
2022/04/10 09:26:49;;;;;;;11.30;6.20;;;;;;;3.58;70.31;96470.48;107824;1268;27961;-75
2022/04/10 09:29:21;;;;;;;11.80;5.90;;;;;;;3.72;70.05;96467.52;107798;1268;42837;-74
2022/04/10 09:31:54;;;;;;;8.50;2.70;;;;;;;3.82;69.73;96472.56;107617;1268;43638;-75
2022/04/10 09:34:26;;;;;;;7.10;3.70;;;;;;;3.90;68.86;96466.27;107760;1268;45621;-75
2022/04/10 09:37:03;;;;;;;7.30;4.20;;;;;;;4.11;68.81;96465.91;107796;1268;32871;-74
2022/04/10 09:39:36;;;;;;;8.10;4.70;;;;;;;4.39;68.08;96470.04;107862;1268;42059;-74
2022/04/10 09:42:09;;;;;;;7.00;4.60;;;;;;;4.46;66.96;96470.48;107712;1268;43611;-75
2022/04/10 09:44:41;;;;;;;8.80;5.80;;;;;;;4.35;66.21;96470.09;107876;1268;35052;-75
2022/04/10 09:47:13;;;;;;;7.90;4.20;;;;;;;4.28;66.55;96468.20;107680;1268;38847;-75
2022/04/10 09:49:45;;;;;;;7.20;4.20;;;;;;;4.18;66.34;96471.27;107956;1268;56066;-75
2022/04/10 09:52:18;;;;;;;7.90;4.20;;;;;;;4.08;66.61;96472.23;107592;1268;28249;-75
2022/04/10 09:54:50;;;;;;;5.50;3.90;;;;;;;3.98;65.36;96475.33;107671;1268;41768;-75
2022/04/10 09:57:23;;;;;;;7.90;3.90;;;;;;;3.95;65.27;96482.20;107655;1268;46107;-76
2022/04/10 09:59:55;;;;;;;7.30;4.20;;;;;;;3.97;65.22;96478.36;107829;1267;40325;-75
2022/04/10 10:02:27;;;;;;;8.90;3.80;;;;;;;4.03;65.31;96478.91;107890;1268;32558;-74
2022/04/10 10:04:58;;;;;;;10.60;5.30;;;;;;;4.07;65.40;96485.79;107775;1268;47963;-75
2022/04/10 10:07:30;;;;;;;8.60;3.80;;;;;;;4.16;65.42;96480.58;107719;1268;45276;-76
2022/04/10 10:10:03;;;;;;;8.50;4.40;;;;;;;4.08;65.10;96487.08;107732;1268;31874;-76
2022/04/10 10:12:34;;;;;;;9.60;4.20;;;;;;;3.97;64.74;96484.86;107730;1268;33961;-75
2022/04/10 10:15:07;;;;;;;10.00;4.20;;;;;;;3.87;65.56;96486.95;107654;1268;44379;-75
2022/04/10 10:17:39;;;;;;;9.90;4.00;;;;;;;3.88;65.73;96491.80;107743;1268;32095;-75
2022/04/10 10:20:12;;;;;;;9.10;4.00;;;;;;;3.93;65.23;96489.86;107619;1269;41794;-75
2022/04/10 10:22:43;;;;;;;6.90;4.20;;;;;;;3.94;65.42;96487.91;107717;1268;45835;-75
2022/04/10 10:25:20;;;;;;;9.30;4.00;;;;;;;4.09;65.25;96487.77;107652;1268;34210;-75
2022/04/10 10:28:10;;;;;;;9.70;5.20;;;;;;;4.24;63.91;96477.70;107787;1268;36032;-75
2022/04/10 10:30:53;;;;;;;9.70;4.80;;;;;;;4.56;64.75;96479.50;107749;1268;43974;-75
2022/04/10 10:33:29;;;;;;;11.90;4.30;;;;;;;4.80;63.75;96475.40;107770;1268;48684;-75
2022/04/10 10:36:02;;;;;;;12.10;6.00;;;;;;;4.77;62.96;96476.24;107714;1268;49737;-74
2022/04/10 10:38:35;;;;;;;14.00;6.30;;;;;;;4.69;62.61;96482.72;107866;1268;34564;-74
2022/04/10 10:41:33;;;;;;;9.10;5.70;;;;;;;4.63;62.66;96477.70;107695;1267;39654;-74
2022/04/10 10:44:48;;;;;;;8.80;5.20;;;;;;;4.90;63.45;96476.09;107672;1268;42604;-74
2022/04/10 10:47:23;;;;;;;7.50;5.00;;;;;;;5.05;62.36;96477.57;107727;1268;40272;-74
2022/04/10 10:49:55;;;;;;;9.00;5.40;;;;;;;4.88;62.20;96478.65;107672;1268;42939;-74
2022/04/10 10:52:28;;;;;;;14.50;6.40;;;;;;;4.70;62.60;96477.33;107542;1270;32638;-74
2022/04/10 10:55:01;;;;;;;11.50;5.50;;;;;;;4.70;62.74;96471.91;106446;1268;1764217;-73
2022/04/10 10:57:40;;;;;;;9.20;6.50;;;;;;;5.09;64.10;96474.36;107736;1268;39723;-73
2022/04/10 11:00:18;;;;;;;7.70;4.40;;;;;;;5.61;64.29;96469.09;109633;1267;42675;-73
2022/04/10 11:02:52;;;;;;;9.30;4.90;;;;;;;6.02;62.32;96465.73;108341;1268;39650;-73
2022/04/10 11:05:35;;;;;;;8.20;4.30;;;;;;;6.17;59.95;96465.98;107794;1268;40755;-74
2022/04/10 11:08:09;;;;;;;8.30;4.50;;;;;;;6.20;59.63;96464.42;107764;1270;40893;-73
2022/04/10 11:10:53;;;;;;;7.70;3.70;;;;;;;6.45;59.68;96455.09;107959;1267;41630;-73
2022/04/10 11:13:24;;;;;;;7.50;4.90;;;;;;;6.56;58.45;96460.79;107908;1268;32768;-74
2022/04/10 11:15:56;;;;;;;7.30;3.90;;;;;;;6.48;58.24;96459.38;107984;1268;29983;-73
2022/04/10 11:18:37;;;;;;;8.80;4.60;;;;;;;6.30;57.88;96457.90;107926;1267;31212;-74
2022/04/10 11:21:15;;;;;;;;;;;;;;;6.35;59.09;96460.73;108014;1268;46339;-74
2022/04/10 11:23:46;;;;;;;7.60;2.60;;;;;;;6.27;56.32;96465.31;107911;1268;45313;-74
2022/04/10 11:26:19;;;;;;;9.20;4.30;;;;;;;5.76;56.44;96467.44;107943;1268;41263;-73
2022/04/10 11:29:02;;;;;;;5.80;3.30;;;;;;;5.50;57.01;96466.52;107940;1267;30901;-74
2022/04/10 11:31:36;;;;;;;9.00;4.60;;;;;;;5.13;58.44;96473.99;107783;1268;44775;-73
2022/04/10 11:34:13;;;;;;;7.50;4.50;;;;;;;4.98;59.88;96475.87;107909;1268;44159;-74
2022/04/10 11:37:03;;;;;;;10.60;5.10;;;;;;;4.64;61.04;96488.90;107869;1267;39395;-74
2022/04/10 11:39:36;;;;;;;10.10;5.60;;;;;;;4.39;62.32;96492.02;107727;1268;46893;-73
2022/04/10 11:42:09;;;;;;;9.10;5.10;;;;;;;4.20;62.96;96494.75;107739;1268;42668;-73
2022/04/10 11:44:41;;;;;;;8.60;4.90;;;;;;;4.08;63.58;96492.25;107678;1268;45819;-73
2022/04/10 11:47:15;;;;;;;7.50;5.10;;;;;;;4.05;64.32;96486.70;107763;1268;34881;-73
2022/04/10 11:49:53;;;;;;;6.10;4.40;;;;;;;4.11;64.35;96490.33;107795;1268;42267;-73
2022/04/10 11:52:24;;;;;;;8.70;4.60;;;;;;;4.21;64.23;96487.62;107741;1268;38402;-73
2022/04/10 11:54:55;;;;;;;8.00;4.40;;;;;;;4.46;64.57;96483.46;107789;1268;47725;-73